Horizon II — 3FHB4 — position and weather

sailwx.info

Track history (hours):
 
Tides and Currents Weather Stations Pressure Air Temp Water Temp Dewpoint Dewpoint Depression Visibility Wind Speed Wind Dir Waves Ship Positions

Horizon II

Last reported at 2017-Jul-23 18:15 UTC. Time now 2017-Aug-16 21:41 UTC.
Position N 31°24' E 032°19'.
Warning: this ship's position is 24 days out of date.

Length 255 m; draft 10.5 m.

Type: Cargo ship. MMSI: 357568000.

Date/timePositionNaut miles runAvg speedWind from/ knotsBaromVisibWave heightAir tempDewpointWater temp
2017-Jul-23 18:15N 31°24' E 032°19'0 0.0
2017-Jul-23 18:00N 31°24' E 032°19'147 9.2
2017-Jul-23 02:02N 32°25' E 029°41'012.0
2017-Jul-23 02:00N 32°25' E 029°41'611.9
2017-Jul-23 01:30N 32°27' E 029°34'611.9
2017-Jul-23 01:00N 32°28' E 029°27'611.7
2017-Jul-23 00:30N 32°30' E 029°21'611.6
2017-Jul-23 00:00N 32°32' E 029°14'40212.0
2017-Jul-21 14:33N 34°35' E 021°34'112.2
2017-Jul-21 14:30N 34°35' E 021°34'612.2
2017-Jul-21 14:00N 34°37' E 021°27'612.1
2017-Jul-21 13:29N 34°39' E 021°19'612.1
2017-Jul-21 13:00N 34°41' E 021°13'30612.3
2017-Jul-20 12:11N 36°14' E 015°15'312.5
2017-Jul-20 11:55N 36°15' E 015°11'512.6
2017-Jul-20 11:29N 36°16' E 015°04'912.6
2017-Jul-20 10:46N 36°19' E 014°54'312.8
2017-Jul-20 10:30N 36°20' E 014°50'612.8
2017-Jul-20 10:00N 36°22' E 014°42'612.7
2017-Jul-20 09:31N 36°24' E 014°35'612.6
2017-Jul-20 09:00N 36°26' E 014°27'612.5
2017-Jul-20 08:30N 36°28' E 014°20'612.5
2017-Jul-20 08:00N 36°30' E 014°13'612.4
2017-Jul-20 07:30N 36°32' E 014°05'612.2
2017-Jul-20 07:00N 36°34' E 013°58'612.1
2017-Jul-20 06:30N 36°35' E 013°51'612.1
2017-Jul-20 06:00N 36°37' E 013°44'612.1
2017-Jul-20 05:30N 36°39' E 013°37'612.1
2017-Jul-20 05:00N 36°41' E 013°29'612.0
2017-Jul-20 04:30N 36°43' E 013°22'612.0
2017-Jul-20 04:00N 36°45' E 013°15'612.0
2017-Jul-20 03:31N 36°47' E 013°08'611.9
2017-Jul-20 03:00N 36°49' E 013°01'812.0
2017-Jul-20 02:22N 36°51' E 012°52'5312.2
2017-Jul-19 22:03N 37°07' E 011°49'112.5
2017-Jul-19 21:56N 37°08' E 011°48'18911.4
2017-Jul-19 05:19N 37°41' E 007°53'3011.8
2017-Jul-19 02:45N 37°36' E 007°16'2211.8
2017-Jul-19 00:55N 37°33' E 006°49'3911.7
2017-Jul-18 21:32N 37°26' E 005°60'211.3
2017-Jul-18 21:20N 37°26' E 005°57'411.2
2017-Jul-18 21:00N 37°26' E 005°52'1911.1
2017-Jul-18 19:15N 37°23' E 005°28'311.2
2017-Jul-18 19:00N 37°22' E 005°25'611.2
2017-Jul-18 18:30N 37°21' E 005°18'911.1
2017-Jul-18 17:44N 37°20' E 005°07'211.1
2017-Jul-18 17:30N 37°19' E 005°04'611.4
2017-Jul-18 17:00N 37°18' E 004°57'911.5
2017-Jul-18 16:15N 37°16' E 004°46'311.4
2017-Jul-18 16:00N 37°16' E 004°43'611.5
2017-Jul-18 15:30N 37°15' E 004°36'611.5
2017-Jul-18 15:00N 37°14' E 004°29'1211.7
2017-Jul-18 14:00N 37°12' E 004°14'611.5
2017-Jul-18 13:30N 37°11' E 004°07'611.2
2017-Jul-18 13:00N 37°10' E 004°00'611.4
2017-Jul-18 12:30N 37°10' E 003°53'711.5
2017-Jul-18 11:56N 37°09' E 003°45'511.6
2017-Jul-18 11:30N 37°08' E 003°38'611.4
2017-Jul-18 10:58N 37°07' E 003°31'611.3
2017-Jul-18 10:27N 37°06' E 003°24'611.5
2017-Jul-18 09:56N 37°05' E 003°16'911.5
2017-Jul-18 09:08N 37°03' E 003°05'211.6
2017-Jul-18 09:00N 37°03' E 003°03'611.5
2017-Jul-18 08:28N 37°02' E 002°56'711.5
2017-Jul-18 07:49N 37°01' E 002°46'511.3
2017-Jul-18 07:21N 36°60' E 002°40'411.2
2017-Jul-18 07:00N 36°59' E 002°35'911.2
2017-Jul-18 06:14N 36°58' E 002°25'311.2
2017-Jul-18 06:00N 36°57' E 002°21'611.1
2017-Jul-18 05:30N 36°56' E 002°14'611.1
2017-Jul-18 04:59N 36°55' E 002°07'611.1
2017-Jul-18 04:28N 36°54' E 002°00'511.1
2017-Jul-18 04:00N 36°54' E 001°54'611.1
2017-Jul-18 03:30N 36°53' E 001°47'1711.5
2017-Jul-18 02:01N 36°50' E 001°26'011.4
2017-Jul-18 02:00N 36°50' E 001°26'611.4
2017-Jul-18 01:30N 36°50' E 001°19'611.3
2017-Jul-18 00:58N 36°49' E 001°11'711.4
2017-Jul-18 00:24N 36°48' E 001°03'511.6
2017-Jul-17 23:59N 36°47' E 000°57'611.8
2017-Jul-17 23:29N 36°46' E 000°50'611.8
2017-Jul-17 22:59N 36°45' E 000°43'611.6
2017-Jul-17 22:29N 36°44' E 000°36'1911.2
2017-Jul-17 20:46N 36°41' E 000°12'311.0
2017-Jul-17 20:30N 36°40' E 000°08'610.9
2017-Jul-17 20:00N 36°39' E 000°01'610.7
2017-Jul-17 19:28N 36°38' W 000°05'510.6
2017-Jul-17 19:00N 36°37' W 000°11'2210.8
2017-Jul-17 16:58N 36°34' W 000°38'30211.5
2017-Jul-16 14:49N 36°01' W 006°50'7012.1
2017-Jul-16 09:00N 36°20' W 008°14'612.0
2017-Jul-16 08:30N 36°22' W 008°21'811.8
2017-Jul-16 07:51N 36°24' W 008°31'411.8
2017-Jul-16 07:30N 36°25' W 008°35'611.9
2017-Jul-16 07:01N 36°26' W 008°42'1212.1
2017-Jul-16 06:00N 36°29' W 008°57'612.1
2017-Jul-16 05:31N 36°31' W 009°04'612.1
2017-Jul-16 05:00N 36°32' W 009°12'611.4
2017-Jul-16 04:31N 36°34' W 009°18'611.8
2017-Jul-16 04:01N 36°39' W 009°23'611.8
2017-Jul-16 03:31N 36°43' W 009°28'611.4
2017-Jul-16 03:01N 36°47' W 009°33'612.3
2017-Jul-16 02:31N 36°53' W 009°34'612.3
2017-Jul-16 02:01N 36°59' W 009°36'612.2
2017-Jul-16 01:30N 37°05' W 009°38'612.1
2017-Jul-16 01:00N 37°11' W 009°40'612.0
2017-Jul-16 00:31N 37°17' W 009°42'612.5
2017-Jul-16 00:00N 37°23' W 009°44'612.5
2017-Jul-15 23:30N 37°29' W 009°46'612.5
2017-Jul-15 23:01N 37°35' W 009°47'612.4
2017-Jul-15 22:31N 37°41' W 009°49'612.8
2017-Jul-15 22:00N 37°48' W 009°51'612.9
2017-Jul-15 21:31N 37°54' W 009°53'713.2
2017-Jul-15 21:01N 38°00' W 009°54'713.2
2017-Jul-15 20:30N 38°07' W 009°56'612.6
2017-Jul-15 20:00N 38°13' W 009°58'612.9
2017-Jul-15 19:30N 38°19' W 010°00'612.9
2017-Jul-15 19:01N 38°25' W 010°02'613.0
2017-Jul-15 18:31N 38°32' W 010°04'612.4
2017-Jul-15 18:01N 38°38' W 010°05'612.1
2017-Jul-15 17:31N 38°44' W 010°06'612.2
2017-Jul-15 17:01N 38°50' W 010°06'612.1
2017-Jul-15 16:30N 38°56' W 010°07'611.8
2017-Jul-15 16:01N 39°02' W 010°06'611.8
2017-Jul-15 15:30N 39°08' W 010°06'612.0
2017-Jul-15 15:01N 39°14' W 010°07'1212.0
2017-Jul-15 14:00N 39°26' W 010°07'612.2
2017-Jul-15 13:30N 39°32' W 010°08'612.1
2017-Jul-15 13:00N 39°38' W 010°07'612.2
2017-Jul-15 12:30N 39°44' W 010°07'712.2
2017-Jul-15 11:58N 39°51' W 010°06'612.2
2017-Jul-15 11:29N 39°56' W 010°06'612.5
2017-Jul-15 11:00N 40°02' W 010°06'611.8
2017-Jul-15 10:31N 40°08' W 010°06'612.1
2017-Jul-15 09:59N 40°14' W 010°06'2712.1
2017-Jul-15 07:48N 40°41' W 010°06'711.9
2017-Jul-15 07:11N 40°48' W 010°06'511.7
2017-Jul-15 06:45N 40°53' W 010°06'611.7
2017-Jul-15 06:13N 40°60' W 010°06'911.9
2017-Jul-15 05:28N 41°09' W 010°06'711.8
2017-Jul-15 04:50N 41°16' W 010°06'2111.6
2017-Jul-15 03:04N 41°37' W 010°06'112.0
2017-Jul-15 02:58N 41°38' W 010°06'1412.1
2017-Jul-15 01:47N 41°52' W 010°07'3811.8
2017-Jul-14 22:37N 42°30' W 010°06'112.1
2017-Jul-14 22:30N 42°31' W 010°06'611.9
2017-Jul-14 22:00N 42°37' W 010°07'611.6
2017-Jul-14 21:30N 42°43' W 010°07'1111.4
2017-Jul-14 20:33N 42°54' W 010°07'111.3
2017-Jul-14 20:29N 42°54' W 010°07'611.5
2017-Jul-14 19:59N 43°00' W 010°07'611.8
2017-Jul-14 19:28N 43°06' W 010°07'  
Track history (hours):
 
Tides and Currents Weather Stations Pressure Air Temp Water Temp Dewpoint Dewpoint Depression Visibility Wind Speed Wind Dir Waves Ship Positions

Horizon II

Last reported at 2017-Jul-23 18:15 UTC. Time now 2017-Aug-16 21:41 UTC.
Position N 31°24' E 032°19'.
Warning: this ship's position is 24 days out of date.

Length 255 m; draft 10.5 m.

Type: Cargo ship. MMSI: 357568000.

Date/timePositionNaut miles runAvg speedWind from/ knotsBaromVisibWave heightAir tempDewpointWater temp
2017-Jul-23 18:15N 31°24' E 032°19'0 0.0
2017-Jul-23 18:00N 31°24' E 032°19'147 9.2
2017-Jul-23 02:02N 32°25' E 029°41'012.0
2017-Jul-23 02:00N 32°25' E 029°41'611.9
2017-Jul-23 01:30N 32°27' E 029°34'611.9
2017-Jul-23 01:00N 32°28' E 029°27'611.7
2017-Jul-23 00:30N 32°30' E 029°21'611.6
2017-Jul-23 00:00N 32°32' E 029°14'40212.0
2017-Jul-21 14:33N 34°35' E 021°34'112.2
2017-Jul-21 14:30N 34°35' E 021°34'612.2
2017-Jul-21 14:00N 34°37' E 021°27'612.1
2017-Jul-21 13:29N 34°39' E 021°19'612.1
2017-Jul-21 13:00N 34°41' E 021°13'30612.3
2017-Jul-20 12:11N 36°14' E 015°15'312.5
2017-Jul-20 11:55N 36°15' E 015°11'512.6
2017-Jul-20 11:29N 36°16' E 015°04'912.6
2017-Jul-20 10:46N 36°19' E 014°54'312.8
2017-Jul-20 10:30N 36°20' E 014°50'612.8
2017-Jul-20 10:00N 36°22' E 014°42'612.7
2017-Jul-20 09:31N 36°24' E 014°35'612.6
2017-Jul-20 09:00N 36°26' E 014°27'612.5
2017-Jul-20 08:30N 36°28' E 014°20'612.5
2017-Jul-20 08:00N 36°30' E 014°13'612.4
2017-Jul-20 07:30N 36°32' E 014°05'612.2
2017-Jul-20 07:00N 36°34' E 013°58'612.1
2017-Jul-20 06:30N 36°35' E 013°51'612.1
2017-Jul-20 06:00N 36°37' E 013°44'612.1
2017-Jul-20 05:30N 36°39' E 013°37'612.1
2017-Jul-20 05:00N 36°41' E 013°29'612.0
2017-Jul-20 04:30N 36°43' E 013°22'612.0
2017-Jul-20 04:00N 36°45' E 013°15'612.0
2017-Jul-20 03:31N 36°47' E 013°08'611.9
2017-Jul-20 03:00N 36°49' E 013°01'812.0
2017-Jul-20 02:22N 36°51' E 012°52'5312.2
2017-Jul-19 22:03N 37°07' E 011°49'112.5
2017-Jul-19 21:56N 37°08' E 011°48'18911.4
2017-Jul-19 05:19N 37°41' E 007°53'3011.8
2017-Jul-19 02:45N 37°36' E 007°16'2211.8
2017-Jul-19 00:55N 37°33' E 006°49'3911.7
2017-Jul-18 21:32N 37°26' E 005°60'211.3
2017-Jul-18 21:20N 37°26' E 005°57'411.2
2017-Jul-18 21:00N 37°26' E 005°52'1911.1
2017-Jul-18 19:15N 37°23' E 005°28'311.2
2017-Jul-18 19:00N 37°22' E 005°25'611.2
2017-Jul-18 18:30N 37°21' E 005°18'911.1
2017-Jul-18 17:44N 37°20' E 005°07'211.1
2017-Jul-18 17:30N 37°19' E 005°04'611.4
2017-Jul-18 17:00N 37°18' E 004°57'911.5
2017-Jul-18 16:15N 37°16' E 004°46'311.4
2017-Jul-18 16:00N 37°16' E 004°43'611.5
2017-Jul-18 15:30N 37°15' E 004°36'611.5
2017-Jul-18 15:00N 37°14' E 004°29'1211.7
2017-Jul-18 14:00N 37°12' E 004°14'611.5
2017-Jul-18 13:30N 37°11' E 004°07'611.2
2017-Jul-18 13:00N 37°10' E 004°00'611.4
2017-Jul-18 12:30N 37°10' E 003°53'711.5
2017-Jul-18 11:56N 37°09' E 003°45'511.6
2017-Jul-18 11:30N 37°08' E 003°38'611.4
2017-Jul-18 10:58N 37°07' E 003°31'611.3
2017-Jul-18 10:27N 37°06' E 003°24'611.5
2017-Jul-18 09:56N 37°05' E 003°16'911.5
2017-Jul-18 09:08N 37°03' E 003°05'211.6
2017-Jul-18 09:00N 37°03' E 003°03'611.5
2017-Jul-18 08:28N 37°02' E 002°56'711.5
2017-Jul-18 07:49N 37°01' E 002°46'511.3
2017-Jul-18 07:21N 36°60' E 002°40'411.2
2017-Jul-18 07:00N 36°59' E 002°35'911.2
2017-Jul-18 06:14N 36°58' E 002°25'311.2
2017-Jul-18 06:00N 36°57' E 002°21'611.1
2017-Jul-18 05:30N 36°56' E 002°14'611.1
2017-Jul-18 04:59N 36°55' E 002°07'611.1
2017-Jul-18 04:28N 36°54' E 002°00'511.1
2017-Jul-18 04:00N 36°54' E 001°54'611.1
2017-Jul-18 03:30N 36°53' E 001°47'1711.5
2017-Jul-18 02:01N 36°50' E 001°26'011.4
2017-Jul-18 02:00N 36°50' E 001°26'611.4
2017-Jul-18 01:30N 36°50' E 001°19'611.3
2017-Jul-18 00:58N 36°49' E 001°11'711.4
2017-Jul-18 00:24N 36°48' E 001°03'511.6
2017-Jul-17 23:59N 36°47' E 000°57'611.8
2017-Jul-17 23:29N 36°46' E 000°50'611.8
2017-Jul-17 22:59N 36°45' E 000°43'611.6
2017-Jul-17 22:29N 36°44' E 000°36'1911.2
2017-Jul-17 20:46N 36°41' E 000°12'311.0
2017-Jul-17 20:30N 36°40' E 000°08'610.9
2017-Jul-17 20:00N 36°39' E 000°01'610.7
2017-Jul-17 19:28N 36°38' W 000°05'510.6
2017-Jul-17 19:00N 36°37' W 000°11'2210.8
2017-Jul-17 16:58N 36°34' W 000°38'30211.5
2017-Jul-16 14:49N 36°01' W 006°50'7012.1
2017-Jul-16 09:00N 36°20' W 008°14'612.0
2017-Jul-16 08:30N 36°22' W 008°21'811.8
2017-Jul-16 07:51N 36°24' W 008°31'411.8
2017-Jul-16 07:30N 36°25' W 008°35'611.9
2017-Jul-16 07:01N 36°26' W 008°42'1212.1
2017-Jul-16 06:00N 36°29' W 008°57'612.1
2017-Jul-16 05:31N 36°31' W 009°04'612.1
2017-Jul-16 05:00N 36°32' W 009°12'611.4
2017-Jul-16 04:31N 36°34' W 009°18'611.8
2017-Jul-16 04:01N 36°39' W 009°23'611.8
2017-Jul-16 03:31N 36°43' W 009°28'611.4
2017-Jul-16 03:01N 36°47' W 009°33'612.3
2017-Jul-16 02:31N 36°53' W 009°34'612.3
2017-Jul-16 02:01N 36°59' W 009°36'612.2
2017-Jul-16 01:30N 37°05' W 009°38'612.1
2017-Jul-16 01:00N 37°11' W 009°40'612.0
2017-Jul-16 00:31N 37°17' W 009°42'612.5
2017-Jul-16 00:00N 37°23' W 009°44'612.5
2017-Jul-15 23:30N 37°29' W 009°46'612.5
2017-Jul-15 23:01N 37°35' W 009°47'612.4
2017-Jul-15 22:31N 37°41' W 009°49'612.8
2017-Jul-15 22:00N 37°48' W 009°51'612.9
2017-Jul-15 21:31N 37°54' W 009°53'713.2
2017-Jul-15 21:01N 38°00' W 009°54'713.2
2017-Jul-15 20:30N 38°07' W 009°56'612.6
2017-Jul-15 20:00N 38°13' W 009°58'612.9
2017-Jul-15 19:30N 38°19' W 010°00'612.9
2017-Jul-15 19:01N 38°25' W 010°02'613.0
2017-Jul-15 18:31N 38°32' W 010°04'612.4
2017-Jul-15 18:01N 38°38' W 010°05'612.1
2017-Jul-15 17:31N 38°44' W 010°06'612.2
2017-Jul-15 17:01N 38°50' W 010°06'612.1
2017-Jul-15 16:30N 38°56' W 010°07'611.8
2017-Jul-15 16:01N 39°02' W 010°06'611.8
2017-Jul-15 15:30N 39°08' W 010°06'612.0
2017-Jul-15 15:01N 39°14' W 010°07'1212.0
2017-Jul-15 14:00N 39°26' W 010°07'612.2
2017-Jul-15 13:30N 39°32' W 010°08'612.1
2017-Jul-15 13:00N 39°38' W 010°07'612.2
2017-Jul-15 12:30N 39°44' W 010°07'712.2
2017-Jul-15 11:58N 39°51' W 010°06'612.2
2017-Jul-15 11:29N 39°56' W 010°06'612.5
2017-Jul-15 11:00N 40°02' W 010°06'611.8
2017-Jul-15 10:31N 40°08' W 010°06'612.1
2017-Jul-15 09:59N 40°14' W 010°06'2712.1
2017-Jul-15 07:48N 40°41' W 010°06'711.9
2017-Jul-15 07:11N 40°48' W 010°06'511.7
2017-Jul-15 06:45N 40°53' W 010°06'611.7
2017-Jul-15 06:13N 40°60' W 010°06'911.9
2017-Jul-15 05:28N 41°09' W 010°06'711.8
2017-Jul-15 04:50N 41°16' W 010°06'2111.6
2017-Jul-15 03:04N 41°37' W 010°06'112.0
2017-Jul-15 02:58N 41°38' W 010°06'1412.1
2017-Jul-15 01:47N 41°52' W 010°07'3811.8
2017-Jul-14 22:37N 42°30' W 010°06'112.1
2017-Jul-14 22:30N 42°31' W 010°06'611.9
2017-Jul-14 22:00N 42°37' W 010°07'611.6
2017-Jul-14 21:30N 42°43' W 010°07'1111.4
2017-Jul-14 20:33N 42°54' W 010°07'111.3
2017-Jul-14 20:29N 42°54' W 010°07'611.5
2017-Jul-14 19:59N 43°00' W 010°07'611.8
2017-Jul-14 19:28N 43°06' W 010°07'  

Dump ship's entire track history